Current Conditions
Partly Cloudy
Conditions



Pressure
30.07 (inHG) - 1018.32 (mb)
Visibility

9.9 (miles) - 16.0 (km)
Temperature
72  °F
Temperature
72  °F
Dewpoint
100  %
 Humidity
Wind Speed
7  mph
6  kts
11  km/h
3.1  m/s
Wind Direction
N
45°
E
90°
135°
S
180°
225°
W
270°
315°
 340°

North North
West
Airport Data
KMYR
Myrtle Beach International Airport
Metar :KMYR 050508Z AUTO 34006KT 10SM FEW007 OVC030 22/22 A3007 RMK AO2
Thu 5th August 01:08 am
Raw Metar Info
Raw METAR is the most common format in the world for the transmission of observational weather data. It is highly standardized through the International Civil Aviation Organization (ICAO), which allows it to be understood throughout most of the world.
API Info
Data Provided by
https://www.checkwx.com/weather/KMYR

Aviation Weather providing METAR, TAF, AIRMET, SIGMET and OUTLOOK Weather Reports
© Info
CSS/SVG/PHP scripts were developed by weather34.com for use in the weather34 template © 2015-2021

Guide Info provided by Metar-Wikipedia